FZUN weather

Luebo Airport
Luebo, Kasai-Occidental Province, Congo (Kinshasa)

Public forecast

Using degrees Celsius for public forecast. Weather courtesy of forecast.io.

METAR (pilot weather report)

Report is more than 6 hours old.

Closest report is Mbuji Mayi Airport, 141.4 nm (261.8 km) ESE. Retrieved 2019/02/17 16:00 UTC (14 hours ago):

FZWA 171600Z 34006KT 9999 FEW025 SCT030CB BKN300 29/23 Q1011 NOSIG

TAF (pilot weather forecast)

Forecast is more than 12 hours old.

Closest forecast is Mbuji Mayi Airport, 141.4 nm (261.8 km) ESE. Retrieved 2016/03/19 06:00 UTC (3 years ago):

TAF FZWA 190500Z 1906/2012 09004KT CAVOK TEMPO 1912/1918 18008KT 9999 SCT027 BECMG 1919/1920 00000KT FEW030CB